Time;durP1;ratioP1;P1;durP2;ratioP2;P2;SDS_P1;SDS_P2;PMS_P1;PMS_P2;Temp;Humidity;BMP_temperature;BMP_pressure;BME280_temperature;BME280_humidity;BME280_pressure;Samples;Min_cycle;Max_cycle;Signal;HPM_P1;HPM_P2
2023/01/07 00:01:36;;;;;;;12.68;7.22;;;;;;;10.21;100.00;101572.31;4951326;29;20027;-71
2023/01/07 00:04:03;;;;;;;10.05;7.68;;;;;;;10.17;100.00;101559.91;4956453;28;20031;-71
2023/01/07 00:06:34;;;;;;;9.68;6.95;;;;;;;10.21;100.00;101567.94;4955862;29;20367;-71
2023/01/07 00:09:01;;;;;;;13.68;7.63;;;;;;;10.20;100.00;101560.00;4956695;28;20417;-71
2023/01/07 00:11:29;;;;;;;12.68;6.88;;;;;;;10.18;100.00;101557.28;4956352;28;20046;-71
2023/01/07 00:13:56;;;;;;;13.65;7.45;;;;;;;10.18;100.00;101559.94;4956267;29;20114;-71
2023/01/07 00:16:24;;;;;;;12.38;7.80;;;;;;;10.17;100.00;101557.25;4956252;28;20035;-71
2023/01/07 00:18:51;;;;;;;10.73;7.43;;;;;;;10.16;100.00;101553.72;4956413;28;20042;-71
2023/01/07 00:21:18;;;;;;;10.75;7.53;;;;;;;10.12;100.00;101554.50;4956133;29;20038;-71
2023/01/07 00:23:44;;;;;;;10.35;6.90;;;;;;;10.13;100.00;101551.00;4956138;28;20038;-71
2023/01/07 00:26:16;;;;;;;10.52;6.45;;;;;;;10.15;100.00;101545.75;4956243;28;20099;-71
2023/01/07 00:28:43;;;;;;;9.47;6.93;;;;;;;10.09;100.00;101543.88;4956350;29;20031;-71
2023/01/07 00:31:12;;;;;;;9.88;6.68;;;;;;;10.10;100.00;101545.66;4955712;29;20023;-71
2023/01/07 00:34:05;;;;;;;10.95;6.90;;;;;;;10.06;100.00;101534.97;4955968;29;20027;-71
2023/01/07 00:36:40;;;;;;;9.77;7.05;;;;;;;10.02;100.00;101539.28;4956112;29;20031;-71
2023/01/07 00:39:12;;;;;;;12.90;6.70;;;;;;;10.03;100.00;101543.72;4955830;29;20082;-71
2023/01/07 00:41:38;;;;;;;;;;;;;;;10.02;100.00;101545.50;4956508;29;20413;-71
2023/01/07 00:44:04;;;;;;;8.50;6.53;;;;;;;9.96;100.00;101528.59;4955776;28;20426;-71
2023/01/07 00:46:30;;;;;;;10.85;6.75;;;;;;;9.95;100.00;101538.25;4955635;29;20028;-71
2023/01/07 00:48:55;;;;;;;10.52;6.68;;;;;;;9.94;100.00;101527.69;4953324;28;20066;-71
2023/01/07 00:51:21;;;;;;;8.68;6.60;;;;;;;9.93;100.00;101524.13;4950250;29;20035;-71
2023/01/07 00:53:46;;;;;;;10.13;6.68;;;;;;;9.90;100.00;101523.19;4955626;28;20031;-71
2023/01/07 00:56:14;;;;;;;11.13;6.68;;;;;;;9.86;100.00;101527.47;4955741;28;20051;-71
2023/01/07 00:58:39;;;;;;;13.30;6.50;;;;;;;9.84;100.00;101513.34;4955606;28;20035;-71
2023/01/07 01:01:05;;;;;;;14.80;6.93;;;;;;;9.82;100.00;101514.19;4954981;28;20046;-72
2023/01/07 01:03:32;;;;;;;9.13;6.72;;;;;;;9.80;100.00;101516.75;4955321;29;20509;-68
2023/01/07 01:06:02;;;;;;;9.57;6.85;;;;;;;9.77;100.00;101500.88;4955249;29;20034;-69
2023/01/07 01:08:27;;;;;;;12.07;6.32;;;;;;;9.82;100.00;101508.91;4955294;29;20031;-70
2023/01/07 01:10:53;;;;;;;12.23;6.00;;;;;;;9.78;100.00;101500.00;4955311;29;20027;-69
2023/01/07 01:13:18;;;;;;;10.65;6.93;;;;;;;9.79;100.00;101492.13;4955140;28;20042;-69
2023/01/07 01:15:45;;;;;;;11.70;6.80;;;;;;;9.81;100.00;101496.53;4954978;28;20042;-69
2023/01/07 01:18:11;;;;;;;10.77;6.38;;;;;;;9.82;100.00;101503.63;4948486;29;20038;-69
2023/01/07 01:20:37;;;;;;;7.78;5.80;;;;;;;9.88;100.00;101483.53;4955227;28;20396;-71
2023/01/07 01:23:02;;;;;;;9.73;5.95;;;;;;;9.87;100.00;101486.13;4955146;29;20067;-71
2023/01/07 01:25:28;;;;;;;9.75;6.53;;;;;;;9.83;100.00;101479.00;4955019;29;20031;-70
2023/01/07 01:27:53;;;;;;;10.75;6.50;;;;;;;9.84;100.00;101475.50;4946279;29;20106;-71
2023/01/07 01:30:19;;;;;;;12.65;6.15;;;;;;;9.81;100.00;101484.25;4955103;28;20027;-71
2023/01/07 01:32:44;;;;;;;10.88;6.40;;;;;;;9.75;100.00;101470.88;4954840;29;20580;-71
2023/01/07 01:35:10;;;;;;;8.40;6.07;;;;;;;9.78;100.00;101478.91;4948227;29;20129;-70
2023/01/07 01:37:35;;;;;;;8.27;6.03;;;;;;;9.78;100.00;101477.13;4954960;28;20027;-71
2023/01/07 01:40:03;;;;;;;9.43;5.78;;;;;;;9.76;100.00;101470.03;4954887;28;20477;-70
2023/01/07 01:42:30;;;;;;;7.95;6.20;;;;;;;9.78;100.00;101481.53;4954913;29;20034;-70
2023/01/07 01:45:00;;;;;;;8.93;5.68;;;;;;;9.75;100.00;101473.53;4954834;28;20122;-70
2023/01/07 01:47:55;;;;;;;9.50;6.00;;;;;;;9.79;100.00;101484.19;4949825;29;20048;-70
2023/01/07 01:50:42;;;;;;;9.73;5.88;;;;;;;9.80;100.00;101474.53;4954105;28;20405;-70
2023/01/07 01:53:15;;;;;;;10.80;5.80;;;;;;;9.77;100.00;101477.13;4954685;28;20027;-71
2023/01/07 01:55:52;;;;;;;11.25;5.72;;;;;;;9.71;100.00;101472.56;4954591;28;20067;-71
2023/01/07 01:58:20;;;;;;;9.40;6.13;;;;;;;9.73;100.00;101497.25;4985959;28;20023;-71
2023/01/07 02:00:47;;;;;;;9.02;5.82;;;;;;;9.73;100.00;101484.06;4954842;28;20031;-71
2023/01/07 02:03:17;;;;;;;10.13;5.63;;;;;;;9.75;100.00;101484.09;4958603;28;20527;-71
2023/01/07 02:05:43;;;;;;;9.40;5.75;;;;;;;9.73;100.00;101484.06;4974211;28;20074;-71
2023/01/07 02:08:09;;;;;;;11.75;6.05;;;;;;;9.70;100.00;101468.16;4972718;28;20457;-71
2023/01/07 02:10:34;;;;;;;9.80;6.07;;;;;;;9.69;100.00;101474.28;4973931;28;20029;-70
2023/01/07 02:13:32;;;;;;;7.85;5.82;;;;;;;9.67;100.00;101480.38;4973999;28;20019;-71
2023/01/07 02:16:12;;;;;;;9.73;5.65;;;;;;;9.65;100.00;101482.97;4973922;28;20026;-71
2023/01/07 02:19:02;;;;;;;9.38;6.32;;;;;;;9.66;100.00;101476.84;4973928;28;20502;-70
2023/01/07 02:21:41;;;;;;;10.00;5.78;;;;;;;9.65;100.00;101475.06;4973930;28;20023;-70
2023/01/07 02:24:25;;;;;;;10.88;5.63;;;;;;;9.65;100.00;101480.34;4988749;28;20027;-71
2023/01/07 02:27:09;;;;;;;10.90;5.60;;;;;;;9.67;100.00;101470.69;4973912;28;20030;-70
2023/01/07 02:30:11;;;;;;;9.40;5.65;;;;;;;9.65;100.00;101477.69;4977097;28;20130;-70
2023/01/07 02:33:12;;;;;;;10.18;5.60;;;;;;;9.64;100.00;101478.56;4977307;28;20031;-71
2023/01/07 02:36:05;;;;;;;8.98;5.45;;;;;;;9.63;100.00;101475.88;4963513;28;20039;-71
2023/01/07 02:38:39;;;;;;;9.18;5.07;;;;;;;9.64;100.00;101475.03;4977370;28;20106;-70
2023/01/07 02:41:14;;;;;;;10.35;5.65;;;;;;;9.64;100.00;101464.47;4977385;28;20063;-71
2023/01/07 02:43:40;;;;;;;8.18;5.70;;;;;;;9.62;100.00;101467.06;4977270;28;20448;-71
2023/01/07 02:46:14;;;;;;;10.40;5.57;;;;;;;9.61;100.00;101462.66;4975888;28;20058;-70
2023/01/07 02:48:41;;;;;;;6.38;5.25;;;;;;;9.61;100.00;101467.91;4976985;28;20167;-71
2023/01/07 02:51:06;;;;;;;8.73;5.43;;;;;;;9.60;100.00;101459.97;4959916;28;20026;-70
2023/01/07 02:53:32;;;;;;;7.10;5.38;;;;;;;9.58;100.00;101465.19;4977105;28;20027;-70
2023/01/07 02:56:00;;;;;;;10.20;5.53;;;;;;;9.60;100.00;101463.50;4976956;28;20038;-70
2023/01/07 02:58:52;;;;;;;8.85;4.90;;;;;;;9.60;100.00;101457.34;4977048;28;20034;-70
2023/01/07 03:01:27;;;;;;;8.88;5.40;;;;;;;9.62;100.00;101468.81;4959469;28;20522;-70
2023/01/07 03:04:04;;;;;;;10.23;4.88;;;;;;;9.66;100.00;101454.84;4977005;28;20524;-70
2023/01/07 03:07:08;;;;;;;9.95;4.88;;;;;;;9.69;100.00;101449.66;4976806;28;20472;-69
2023/01/07 03:09:49;;;;;;;8.82;4.90;;;;;;;9.73;100.00;101446.22;4976918;28;20440;-69
2023/01/07 03:12:35;;;;;;;7.88;4.93;;;;;;;9.79;100.00;101441.97;4976783;28;20027;-70
2023/01/07 03:15:10;;;;;;;8.13;4.88;;;;;;;9.82;100.00;101443.81;4976666;28;20019;-69
2023/01/07 03:17:50;;;;;;;7.18;4.30;;;;;;;9.85;100.00;101435.03;4976731;28;20030;-69
2023/01/07 03:20:19;;;;;;;7.93;4.50;;;;;;;9.88;100.00;101437.75;4976662;28;20027;-69
2023/01/07 03:22:45;;;;;;;8.50;4.72;;;;;;;9.93;100.00;101433.47;4976571;28;20026;-70
2023/01/07 03:25:12;;;;;;;8.43;4.43;;;;;;;9.92;100.00;101424.66;4976478;28;20118;-69
2023/01/07 03:27:41;;;;;;;8.50;4.50;;;;;;;9.95;100.00;101422.09;4976460;28;20023;-70
2023/01/07 03:30:11;;;;;;;8.45;4.10;;;;;;;9.94;100.00;101416.81;4976435;28;20057;-69
2023/01/07 03:33:00;;;;;;;7.75;4.00;;;;;;;9.97;100.00;101414.19;4976227;28;20023;-69
2023/01/07 03:35:29;;;;;;;8.30;4.28;;;;;;;9.95;100.00;101414.19;4976629;28;20432;-70
2023/01/07 03:37:57;;;;;;;7.15;4.10;;;;;;;9.99;100.00;101407.22;4958924;28;20019;-70
2023/01/07 03:40:23;;;;;;;6.72;4.07;;;;;;;9.98;100.00;101410.72;4976232;28;20031;-71
2023/01/07 03:42:49;;;;;;;7.85;3.95;;;;;;;9.98;100.00;101406.34;4976198;28;20035;-70
2023/01/07 03:45:18;;;;;;;6.35;4.00;;;;;;;9.95;100.00;101406.25;4976078;28;20031;-70
2023/01/07 03:47:47;;;;;;;9.18;3.90;;;;;;;9.97;100.00;101403.66;4976391;28;20034;-69
2023/01/07 03:50:14;;;;;;;8.25;4.13;;;;;;;9.95;100.00;101400.09;4976052;28;20401;-70
2023/01/07 03:52:39;;;;;;;7.13;3.92;;;;;;;9.96;100.00;101397.47;4976054;28;20019;-70
2023/01/07 03:55:05;;;;;;;6.32;4.28;;;;;;;9.96;100.00;101394.84;4958858;28;20046;-70
2023/01/07 03:57:32;;;;;;;9.13;4.10;;;;;;;9.96;100.00;101396.59;4975919;28;20035;-70
2023/01/07 03:59:57;;;;;;;7.70;4.07;;;;;;;9.98;100.00;101390.50;4975885;28;20543;-70
2023/01/07 04:02:23;;;;;;;6.70;3.67;;;;;;;9.98;100.00;101387.84;4975781;28;20031;-70
2023/01/07 04:04:48;;;;;;;6.70;3.80;;;;;;;10.02;100.00;101394.06;4975724;28;20026;-70
2023/01/07 04:07:14;;;;;;;7.50;3.60;;;;;;;10.01;100.00;101382.63;4975724;28;20077;-70
2023/01/07 04:09:39;;;;;;;6.53;3.72;;;;;;;10.03;100.00;101378.28;4975766;28;20022;-70
2023/01/07 04:12:05;;;;;;;6.35;3.55;;;;;;;10.02;100.00;101380.88;4975709;28;20022;-70
2023/01/07 04:14:30;;;;;;;6.03;3.17;;;;;;;10.02;100.00;101371.22;4975835;28;20476;-70
2023/01/07 04:16:55;;;;;;;4.95;3.47;;;;;;;10.04;100.00;101369.50;4975634;28;20042;-70
2023/01/07 04:19:21;;;;;;;5.55;3.40;;;;;;;10.02;100.00;101373.88;4975746;28;20108;-70
2023/01/07 04:21:46;;;;;;;6.22;3.60;;;;;;;10.07;100.00;101371.31;4975474;28;20437;-70
2023/01/07 04:24:12;;;;;;;6.45;3.08;;;;;;;10.03;100.00;101366.84;4975374;28;20035;-69
2023/01/07 04:26:37;;;;;;;7.63;3.50;;;;;;;10.04;100.00;101358.94;4957862;28;20078;-69
2023/01/07 04:29:03;;;;;;;5.63;3.58;;;;;;;10.04;100.00;101352.78;4975606;28;20034;-70
2023/01/07 04:31:28;;;;;;;4.78;3.30;;;;;;;10.02;100.00;101349.19;4975426;28;20019;-70
2023/01/07 04:33:54;;;;;;;5.90;3.42;;;;;;;9.99;100.00;101342.13;4975156;28;20034;-70
2023/01/07 04:36:19;;;;;;;5.47;3.30;;;;;;;9.98;100.00;101340.34;4975246;28;20397;-69
2023/01/07 04:38:45;;;;;;;7.50;3.60;;;;;;;9.98;100.00;101344.72;4975139;28;20113;-70
2023/01/07 04:41:10;;;;;;;4.93;3.13;;;;;;;10.00;100.00;101343.00;4975331;28;20055;-69
2023/01/07 04:43:36;;;;;;;5.82;3.30;;;;;;;9.98;100.00;101339.44;4975111;28;20516;-69
2023/01/07 04:46:02;;;;;;;6.00;3.22;;;;;;;9.96;100.00;101339.41;4975261;28;20035;-69
2023/01/07 04:48:28;;;;;;;7.15;3.17;;;;;;;9.94;100.00;101340.25;4975164;28;20051;-69
2023/01/07 04:50:53;;;;;;;4.20;3.00;;;;;;;9.93;100.00;101326.13;4974491;28;20142;-69
2023/01/07 04:53:18;;;;;;;6.03;3.15;;;;;;;9.90;100.00;101335.75;4974915;28;20103;-69
2023/01/07 04:55:44;;;;;;;6.47;3.15;;;;;;;9.86;100.00;101329.50;4957908;28;20033;-69
2023/01/07 04:58:09;;;;;;;7.03;3.78;;;;;;;9.82;100.00;101326.78;4974873;28;20106;-69
2023/01/07 05:00:35;;;;;;;5.43;3.05;;;;;;;9.83;100.00;101333.84;4957619;28;20031;-69
2023/01/07 05:03:00;;;;;;;4.32;3.03;;;;;;;9.81;100.00;101325.91;4974516;28;20031;-69
2023/01/07 05:05:26;;;;;;;4.20;2.90;;;;;;;9.77;100.00;101318.75;4974834;28;20038;-69
2023/01/07 05:07:51;;;;;;;6.22;3.10;;;;;;;9.80;100.00;101318.81;4973438;28;20031;-70
2023/01/07 05:10:16;;;;;;;4.38;2.88;;;;;;;9.81;100.00;101314.41;4974636;28;20023;-69
2023/01/07 05:12:42;;;;;;;4.25;2.85;;;;;;;9.80;100.00;101326.72;4957380;28;20477;-69
2023/01/07 05:15:08;;;;;;;4.35;2.90;;;;;;;9.82;100.00;101317.09;4974550;28;20045;-69
2023/01/07 05:17:34;;;;;;;6.90;2.80;;;;;;;9.81;100.00;101323.25;4974781;28;20073;-69
2023/01/07 05:19:59;;;;;;;4.57;3.00;;;;;;;9.81;100.00;101311.78;4974544;28;20572;-69
2023/01/07 05:22:24;;;;;;;6.25;3.03;;;;;;;9.78;100.00;101309.97;4974444;28;20085;-69
2023/01/07 05:24:50;;;;;;;6.22;3.05;;;;;;;9.78;100.00;101302.06;4974353;28;20041;-69
2023/01/07 05:27:15;;;;;;;4.40;2.75;;;;;;;9.76;100.00;101304.69;4974376;28;20165;-69
2023/01/07 05:29:41;;;;;;;3.67;2.60;;;;;;;9.70;100.00;101298.38;4956997;28;20030;-69
2023/01/07 05:32:06;;;;;;;6.47;2.60;;;;;;;9.73;99.58;101290.53;4956924;28;20514;-69
2023/01/07 05:34:32;;;;;;;6.68;2.80;;;;;;;9.70;99.13;101296.63;4974532;28;20099;-69
2023/01/07 05:36:57;;;;;;;7.05;3.00;;;;;;;9.72;98.79;101296.63;4974291;28;20399;-69
2023/01/07 05:39:22;;;;;;;5.10;2.70;;;;;;;9.70;98.96;101309.81;4974327;28;20461;-69
2023/01/07 05:41:48;;;;;;;5.80;2.63;;;;;;;9.70;98.71;101304.53;4974196;28;20027;-69
2023/01/07 05:44:13;;;;;;;4.40;2.53;;;;;;;9.69;98.38;101299.22;4974113;28;20508;-69
2023/01/07 05:46:39;;;;;;;6.68;3.22;;;;;;;9.69;98.54;101299.22;4974169;28;20033;-69
2023/01/07 05:49:05;;;;;;;5.05;2.65;;;;;;;9.71;98.10;101300.13;4974001;28;20059;-69
2023/01/07 05:51:30;;;;;;;4.57;2.75;;;;;;;9.73;98.04;101290.53;4974383;28;20370;-69
2023/01/07 05:53:56;;;;;;;4.82;2.80;;;;;;;9.76;97.75;101288.84;4974040;28;20070;-69
2023/01/07 05:56:21;;;;;;;5.95;2.60;;;;;;;9.77;98.02;101295.91;4974110;28;20037;-69
2023/01/07 05:58:47;;;;;;;4.72;2.50;;;;;;;9.77;97.40;101292.38;4973983;28;20111;-69
2023/01/07 06:01:12;;;;;;;5.47;2.60;;;;;;;9.80;97.30;101289.78;4973857;28;20054;-69
2023/01/07 06:03:38;;;;;;;4.75;2.50;;;;;;;9.77;96.28;101280.06;4975989;28;20073;-69
2023/01/07 06:06:06;;;;;;;4.88;2.40;;;;;;;9.85;95.63;101289.88;4977926;28;20073;-69
2023/01/07 06:08:38;;;;;;;6.28;2.63;;;;;;;9.85;95.37;101287.22;4978391;28;20030;-69
2023/01/07 06:11:05;;;;;;;4.40;2.30;;;;;;;9.89;94.84;101273.25;4978152;28;20030;-69
2023/01/07 06:13:31;;;;;;;5.63;2.40;;;;;;;9.89;94.48;101286.44;4977885;28;20027;-70
2023/01/07 06:16:05;;;;;;;3.95;2.33;;;;;;;9.93;93.45;101275.97;4977848;28;20034;-69
2023/01/07 06:18:31;;;;;;;3.83;2.10;;;;;;;9.94;93.28;101266.31;4978033;28;20088;-69
2023/01/07 06:20:56;;;;;;;5.72;2.42;;;;;;;9.94;92.34;101275.13;4977718;28;20477;-69
2023/01/07 06:23:22;;;;;;;3.83;2.20;;;;;;;9.99;91.88;101262.03;4977664;28;20026;-69
2023/01/07 06:25:48;;;;;;;6.10;2.60;;;;;;;9.90;92.71;101260.09;4977593;28;20062;-69
2023/01/07 06:28:13;;;;;;;4.40;2.30;;;;;;;9.93;92.31;101268.06;4977569;28;20027;-70
2023/01/07 06:30:39;;;;;;;3.80;2.17;;;;;;;9.92;92.10;101260.13;4977578;28;20504;-69
2023/01/07 06:33:04;;;;;;;4.60;2.20;;;;;;;9.92;92.29;101263.63;4976127;28;20093;-69
2023/01/07 06:35:30;;;;;;;4.28;2.50;;;;;;;9.91;91.49;101253.94;4977502;28;20035;-69
2023/01/07 06:37:56;;;;;;;3.45;2.22;;;;;;;9.91;91.66;101239.84;4977422;28;20056;-70
2023/01/07 06:40:21;;;;;;;3.58;2.30;;;;;;;9.89;92.17;101245.13;4977360;28;20485;-69
2023/01/07 06:42:47;;;;;;;3.25;2.28;;;;;;;9.89;91.40;101247.75;4977283;28;20540;-69
2023/01/07 06:45:12;;;;;;;3.78;2.10;;;;;;;9.89;90.98;101241.56;4977220;28;20030;-69
2023/01/07 06:47:38;;;;;;;4.47;2.10;;;;;;;9.91;90.79;101235.47;4959996;28;20027;-69
2023/01/07 06:50:03;;;;;;;4.32;2.00;;;;;;;9.87;91.02;101231.00;4977062;28;20062;-69
2023/01/07 06:52:29;;;;;;;4.68;2.20;;;;;;;9.94;90.57;101242.56;4977391;28;20031;-69
2023/01/07 06:54:54;;;;;;;4.03;2.20;;;;;;;9.90;90.81;101228.41;4977118;28;20035;-69
2023/01/07 06:57:19;;;;;;;4.15;2.10;;;;;;;9.91;90.48;101227.56;4977092;28;20030;-69
2023/01/07 06:59:45;;;;;;;3.42;2.10;;;;;;;9.91;90.54;101230.19;4977235;28;20122;-70
2023/01/07 07:02:18;;;;;;;3.63;2.20;;;;;;;9.87;90.60;101224.81;4976744;28;20027;-69
2023/01/07 07:04:43;;;;;;;3.00;2.13;;;;;;;9.82;90.42;101214.19;4976962;28;20088;-69
2023/01/07 07:07:09;;;;;;;3.53;2.15;;;;;;;9.87;90.15;101225.72;4976933;28;20031;-69
2023/01/07 07:09:34;;;;;;;2.53;1.90;;;;;;;9.87;90.47;101225.72;4976803;28;20035;-69
2023/01/07 07:12:00;;;;;;;3.72;2.00;;;;;;;9.87;90.03;101215.16;4976894;28;20027;-69
2023/01/07 07:14:25;;;;;;;3.00;2.10;;;;;;;9.88;89.90;101209.00;4976412;28;20033;-69
2023/01/07 07:16:50;;;;;;;2.35;1.85;;;;;;;9.86;89.51;101210.75;4976717;28;20389;-69
2023/01/07 07:19:16;;;;;;;3.17;2.20;;;;;;;9.85;89.77;101214.25;4976673;28;20030;-69
2023/01/07 07:21:41;;;;;;;3.00;2.10;;;;;;;9.84;89.77;101212.44;4976852;28;20059;-70
2023/01/07 07:24:06;;;;;;;4.25;2.20;;;;;;;9.84;89.30;101211.56;4976592;28;20110;-69
2023/01/07 07:26:32;;;;;;;3.30;2.22;;;;;;;9.83;89.27;101207.16;4976418;28;20027;-69
2023/01/07 07:28:57;;;;;;;3.00;2.03;;;;;;;9.85;88.60;101211.59;4975230;28;20027;-69
2023/01/07 07:31:23;;;;;;;4.22;2.50;;;;;;;9.84;88.75;101201.88;4976334;28;20034;-70
2023/01/07 07:33:48;;;;;;;3.67;2.08;;;;;;;9.84;88.52;101207.16;4976513;28;20031;-70
2023/01/07 07:36:13;;;;;;;3.17;1.98;;;;;;;9.83;88.77;101205.38;4976472;28;20027;-70
2023/01/07 07:38:39;;;;;;;4.95;2.40;;;;;;;9.82;89.19;101205.38;4976324;28;20110;-69
2023/01/07 07:41:04;;;;;;;3.15;2.10;;;;;;;9.83;88.78;101199.22;4976235;28;20038;-69
2023/01/07 07:43:29;;;;;;;2.95;1.95;;;;;;;9.85;87.78;101211.59;4976221;28;20488;-69
2023/01/07 07:45:56;;;;;;;3.33;2.13;;;;;;;9.86;88.05;101186.97;4976082;28;20110;-69
2023/01/07 07:48:22;;;;;;;2.88;1.88;;;;;;;9.83;88.35;101192.19;4975846;28;20108;-70
2023/01/07 07:50:50;;;;;;;2.80;1.92;;;;;;;9.89;87.46;101188.78;4958833;28;20421;-69
2023/01/07 07:53:17;;;;;;;3.28;2.20;;;;;;;9.85;87.81;101187.84;4976209;28;20031;-70
2023/01/07 07:55:43;;;;;;;2.67;1.90;;;;;;;9.87;87.48;101183.47;4975960;28;20552;-69
2023/01/07 07:58:08;;;;;;;3.65;2.10;;;;;;;9.86;87.26;101189.63;4976216;28;20054;-69
2023/01/07 08:00:34;;;;;;;3.95;2.13;;;;;;;9.85;88.03;101187.84;4975961;28;20053;-69
2023/01/07 08:02:59;;;;;;;2.83;1.85;;;;;;;9.87;87.43;101187.88;4975928;28;20053;-70
2023/01/07 08:05:26;;;;;;;3.65;2.10;;;;;;;9.85;87.45;101185.22;4975824;28;20027;-69
2023/01/07 08:07:52;;;;;;;3.00;2.13;;;;;;;9.86;87.39;101178.19;4975648;28;20444;-69
2023/01/07 08:10:19;;;;;;;2.90;2.03;;;;;;;9.85;87.11;101166.75;4975997;28;20038;-68
2023/01/07 08:12:45;;;;;;;4.82;2.22;;;;;;;9.88;87.13;101169.41;4975977;28;20035;-69
2023/01/07 08:15:10;;;;;;;3.80;2.25;;;;;;;9.87;86.85;101169.38;4975577;28;20473;-68
2023/01/07 08:17:36;;;;;;;2.60;1.88;;;;;;;9.87;86.40;101167.63;4975591;28;20034;-69
2023/01/07 08:20:03;;;;;;;4.25;2.10;;;;;;;9.89;86.71;101173.84;4975537;28;20033;-69
2023/01/07 08:22:28;;;;;;;5.10;2.20;;;;;;;9.88;86.71;101166.78;4958419;28;20365;-69
2023/01/07 08:24:53;;;;;;;5.15;2.20;;;;;;;9.89;86.77;101162.38;4975411;28;20041;-68
2023/01/07 08:27:20;;;;;;;3.05;2.10;;;;;;;9.90;86.58;101151.88;4974873;28;20109;-69
2023/01/07 08:29:45;;;;;;;5.57;2.00;;;;;;;9.91;86.58;101161.56;4975315;28;20026;-68
2023/01/07 08:32:11;;;;;;;4.07;2.08;;;;;;;9.91;86.66;101163.31;4975062;28;20075;-68
2023/01/07 08:34:36;;;;;;;5.90;1.98;;;;;;;9.92;86.31;101157.16;4975329;28;20169;-68
2023/01/07 08:37:02;;;;;;;3.13;2.08;;;;;;;10.00;85.35;101145.00;4975454;28;20389;-68
2023/01/07 08:39:27;;;;;;;3.50;2.15;;;;;;;9.95;85.42;101150.19;4975273;28;20050;-69
2023/01/07 08:41:53;;;;;;;5.10;2.00;;;;;;;9.97;85.75;101144.94;4957945;28;20557;-69
2023/01/07 08:44:18;;;;;;;3.45;2.00;;;;;;;9.98;85.29;101141.47;4975104;28;20027;-69
2023/01/07 08:46:43;;;;;;;4.18;1.80;;;;;;;9.95;84.97;101139.63;4975186;28;20441;-68
2023/01/07 08:49:10;;;;;;;1.83;1.70;;;;;;;9.98;85.44;101144.97;4974726;28;20412;-68
2023/01/07 08:51:36;;;;;;;2.47;2.00;;;;;;;10.00;84.32;101143.25;4974934;28;20033;-68
2023/01/07 08:54:01;;;;;;;3.95;2.20;;;;;;;10.02;84.45;101145.91;4974937;28;20094;-68
2023/01/07 08:56:26;;;;;;;2.83;1.90;;;;;;;10.07;83.95;101149.53;4974886;28;20031;-68
2023/01/07 08:58:52;;;;;;;2.08;1.88;;;;;;;10.08;83.20;101148.66;4974979;28;20049;-68
2023/01/07 09:01:17;;;;;;;3.90;1.95;;;;;;;10.09;83.27;101150.44;4974520;28;20033;-69
2023/01/07 09:03:44;;;;;;;2.95;1.92;;;;;;;10.09;83.33;101144.25;4974744;28;20428;-68
2023/01/07 09:06:09;;;;;;;5.78;2.00;;;;;;;10.10;83.43;101149.56;4974950;28;20113;-68
2023/01/07 09:08:35;;;;;;;2.33;1.95;;;;;;;10.14;82.75;101150.50;4974705;28;20114;-69
2023/01/07 09:11:01;;;;;;;3.88;1.92;;;;;;;10.13;83.28;101128.50;4974629;28;20076;-68
2023/01/07 09:13:26;;;;;;;2.33;1.90;;;;;;;10.12;83.40;101126.72;4974892;28;20388;-68
2023/01/07 09:15:52;;;;;;;4.35;2.10;;;;;;;10.14;82.66;101126.75;4974468;28;20027;-67
2023/01/07 09:18:18;;;;;;;6.05;2.10;;;;;;;10.15;82.95;101124.16;4974735;28;20369;-67
2023/01/07 09:20:44;;;;;;;2.85;2.00;;;;;;;10.17;82.52;101121.53;4974386;28;20039;-67
2023/01/07 09:23:09;;;;;;;2.63;2.10;;;;;;;10.19;82.72;101122.41;4974672;28;20102;-67
2023/01/07 09:25:35;;;;;;;2.75;1.92;;;;;;;10.20;82.97;101111.91;4974342;28;20469;-68
2023/01/07 09:28:00;;;;;;;3.80;2.38;;;;;;;10.22;82.66;101114.56;4974349;28;20077;-68
2023/01/07 09:30:26;;;;;;;2.50;1.88;;;;;;;10.24;82.20;101119.06;4957324;28;20524;-68
2023/01/07 09:32:51;;;;;;;3.00;1.80;;;;;;;10.24;82.65;101113.78;4972825;28;20481;-68
2023/01/07 09:35:17;;;;;;;3.33;1.90;;;;;;;10.26;81.66;101112.03;4974282;28;20031;-68
2023/01/07 09:37:42;;;;;;;3.42;1.83;;;;;;;10.26;82.00;101106.75;4974167;28;20062;-68
2023/01/07 09:40:18;;;;;;;3.22;1.92;;;;;;;10.30;81.32;101107.69;4974219;28;20019;-68
2023/01/07 09:42:56;;;;;;;4.07;2.10;;;;;;;10.31;81.46;101095.38;4974288;28;20038;-67
2023/01/07 09:45:30;;;;;;;2.85;1.90;;;;;;;10.35;80.90;101099.84;4974054;28;20030;-68
2023/01/07 09:47:59;;;;;;;3.15;1.80;;;;;;;10.34;79.96;101090.16;4974178;28;20483;-68
2023/01/07 09:50:38;;;;;;;2.95;2.00;;;;;;;10.39;79.90;101091.09;4973928;28;20090;-67
2023/01/07 09:53:11;;;;;;;2.17;1.63;;;;;;;10.41;79.11;101082.34;4974150;28;20078;-68
2023/01/07 09:55:40;;;;;;;1.80;1.70;;;;;;;10.59;79.28;101081.72;4974087;28;20038;-68
2023/01/07 09:58:18;;;;;;;3.38;1.50;;;;;;;10.96;77.38;101074.28;4974089;28;20050;-67
2023/01/07 10:01:05;;;;;;;2.80;1.90;;;;;;;11.25;76.87;101067.56;4974172;28;20038;-67
2023/01/07 10:04:08;;;;;;;2.63;1.73;;;;;;;11.40;75.67;101063.34;4973946;28;20110;-67
2023/01/07 10:06:55;;;;;;;2.30;1.77;;;;;;;11.54;74.30;101061.72;4973972;28;20102;-67
2023/01/07 10:09:21;;;;;;;2.83;1.60;;;;;;;11.67;73.52;101062.75;4973976;28;20030;-67
2023/01/07 10:12:11;;;;;;;2.92;1.73;;;;;;;11.77;73.58;101046.06;4973946;28;20094;-68
2023/01/07 10:14:42;;;;;;;2.13;1.70;;;;;;;11.84;71.79;101047.94;4956830;28;20039;-68
2023/01/07 10:17:21;;;;;;;2.25;1.70;;;;;;;11.87;72.90;101034.72;4973893;28;20058;-68
2023/01/07 10:19:47;;;;;;;3.47;1.83;;;;;;;11.86;71.77;101024.09;4973934;28;20031;-68
2023/01/07 10:22:15;;;;;;;2.15;1.70;;;;;;;11.91;71.79;101022.41;4974056;28;20031;-68
2023/01/07 10:24:47;;;;;;;2.03;1.60;;;;;;;11.95;71.48;101026.84;4973803;28;20498;-67
2023/01/07 10:27:17;;;;;;;2.95;1.45;;;;;;;11.98;71.02;101018.91;4973801;28;20027;-68
2023/01/07 10:29:47;;;;;;;4.28;1.70;;;;;;;12.02;70.83;101005.69;4973768;28;20031;-67
2023/01/07 10:32:18;;;;;;;2.83;1.80;;;;;;;12.11;70.55;101002.22;4973746;28;20034;-66
2023/01/07 10:34:46;;;;;;;1.98;1.70;;;;;;;12.19;69.65;100991.69;4956235;28;20043;-68
2023/01/07 10:37:15;;;;;;;2.30;1.60;;;;;;;12.25;69.10;100981.16;4973109;28;20027;-68
2023/01/07 10:39:51;;;;;;;1.80;1.50;;;;;;;12.24;69.42;100963.47;4973306;28;20023;-68
2023/01/07 10:42:27;;;;;;;2.15;1.73;;;;;;;12.30;68.56;100973.22;4973795;28;20477;-67
2023/01/07 10:45:14;;;;;;;1.83;1.60;;;;;;;12.30;68.12;100958.22;4956444;28;20056;-68
2023/01/07 10:48:22;;;;;;;3.00;1.60;;;;;;;12.26;66.85;100954.66;4973561;28;20042;-68
2023/01/07 10:51:13;;;;;;;1.88;1.70;;;;;;;12.31;66.94;100959.97;4962455;28;20070;-68
2023/01/07 10:54:00;;;;;;;2.55;1.80;;;;;;;12.34;66.84;100964.41;4977166;28;20071;-68
2023/01/07 10:56:32;;;;;;;2.40;1.70;;;;;;;12.35;67.13;100945.88;4977125;28;20027;-67
2023/01/07 10:58:57;;;;;;;2.83;1.52;;;;;;;12.44;66.37;100945.03;4959600;28;20035;-68
2023/01/07 11:01:24;;;;;;;2.17;1.70;;;;;;;12.47;65.74;100950.34;4959540;28;20030;-68
2023/01/07 11:03:53;;;;;;;3.13;1.70;;;;;;;12.46;65.15;100937.94;4976927;28;20077;-67
2023/01/07 11:06:29;;;;;;;2.40;1.73;;;;;;;12.50;66.90;100934.44;4959765;28;20050;-67
2023/01/07 11:08:55;;;;;;;2.00;1.65;;;;;;;12.47;64.97;100932.69;4976955;28;20489;-67
2023/01/07 11:11:22;;;;;;;2.30;1.77;;;;;;;12.42;64.56;100954.72;4976800;28;20040;-67
2023/01/07 11:14:10;;;;;;;3.10;1.70;;;;;;;12.41;65.87;100923.78;4976690;28;20061;-67
2023/01/07 11:16:43;;;;;;;2.58;1.70;;;;;;;12.44;64.73;100927.34;4976852;28;20527;-67
2023/01/07 11:19:10;;;;;;;3.00;1.90;;;;;;;12.40;64.60;100930.00;4976915;28;20092;-67
2023/01/07 11:21:47;;;;;;;1.88;1.67;;;;;;;12.41;64.52;100931.75;4976671;28;20022;-66
2023/01/07 11:24:30;;;;;;;2.42;1.70;;;;;;;12.37;65.29;100925.53;4976941;28;20121;-69
2023/01/07 11:27:01;;;;;;;2.50;1.67;;;;;;;12.28;64.70;100904.31;4976734;28;20114;-67
2023/01/07 11:29:33;;;;;;;4.30;1.90;;;;;;;12.20;65.85;100914.84;4976460;28;20153;-66
2023/01/07 11:32:01;;;;;;;2.85;1.83;;;;;;;12.12;64.92;100899.81;4976342;28;20100;-67
2023/01/07 11:34:29;;;;;;;2.60;1.85;;;;;;;12.10;65.40;100889.22;4958990;28;20122;-66
2023/01/07 11:36:54;;;;;;;2.67;1.92;;;;;;;12.21;65.40;100871.63;4976260;28;20034;-63